Aérodrome :
LOGIN :

S'inscrire | Disclaimer

   EN    FR    IT 

 










Légende :    VFR   VFR Marginal   IFR   IFR Intensif   IFR Très Intensif
Visi : 
Plafond : 
>= 8 km
>= 3000ft
5 à 8 km
1000 à 3000 ft
1500m à 5 km
500 à 1000 ft
800 à 1500m
200 à 500 ft
< 800m
< 200 ft
Symboles :   Orages  Brouillard  Fortes neiges  Fortes précipitations  Vent > 20 kt
SIGMETs :   Divers  Orages  Givrage  Turbulence  Onde Orograph.  Cendres Volcan.







- Altitude de l'aérodrome : 458 ft
- Voir les cartes d'approche


LFSI - St-Dizier

DERNIER METAR :
  • 181600Z AUTO 23009KT 9999 3900 -RADZ BKN036/// BKN042/// OVC054/// ///CB 08/07 Q1006

METARs EXPIRÉS :
  • 181530Z AUTO 23006KT 9999 BKN045/// BKN052/// OVC066/// ///TCU 09/08 Q1005
  • 181500Z AUTO 28010KT 7000 -RA SCT044/// BKN054/// OVC064/// ///TCU 09/07 Q1006
  • 181430Z AUTO 28012KT 9999 BKN040/// OVC054/// ///CB 09/08 Q1005
  • 181400Z AUTO 27015KT 6000 RA BKN009/// BKN016/// OVC037/// ///CB 09/08 Q1006
  • 181330Z AUTO 28016KT 3300 RA BR FEW009/// BKN021/// OVC029/// ///CB 09/09 Q1005

TAF TAF LFSI
Valide du 18 à 15h jusqu'au 19 à 15h UTC


181400Z 1815/1915 28015G25KT 9000 BKN035
TEMPO 1815/1901 4000 -SHRA BKN015TCU OVC030
TEMPO 1910/1915 4000 -SHRA BKN020TCU
Pas de NOTAMs connus pour ce terrain.



MET'MAP, la Météo Aéronautique d'un coup d'oeil ! - Copyright ORBIFLY Décembre 2007 - Disclaimer

ORBIFLY MET'MAP TEAM :

Programmation & Développement : Alexandra Zaïnal
Conception & Développement : Baudouin d'Aumeries
Co-Programmation & Développement : Marc-Olivier Méhu
Soutien technique & logistique : Manuel Goepfert

Contact : metmap@orbifly.com




SOURCES & CREDITS :

   NOAA